Time;durP1;ratioP1;P1;durP2;ratioP2;P2;SDS_P1;SDS_P2;PMS_P1;PMS_P2;Temp;Humidity;BMP_temperature;BMP_pressure;BME280_temperature;BME280_humidity;BME280_pressure;Samples;Min_cycle;Max_cycle;Signal;HPM_P1;HPM_P2
2022/11/20 00:00:25;;;;;;;41.22;23.88;;;2.50;99.90;;;;;;4954798;29;20034;-51
2022/11/20 00:02:50;;;;;;;46.42;25.55;;;2.50;99.90;;;;;;4954805;28;20027;-49
2022/11/20 00:05:16;;;;;;;41.03;24.40;;;2.50;99.90;;;;;;4955200;28;20106;-47
2022/11/20 00:07:42;;;;;;;44.35;22.88;;;2.50;99.90;;;;;;4955276;28;20395;-48
2022/11/20 00:10:08;;;;;;;40.72;24.20;;;2.50;99.90;;;;;;4955524;29;20027;-53
2022/11/20 00:12:33;;;;;;;41.95;24.23;;;2.60;99.90;;;;;;4954610;28;20077;-48
2022/11/20 00:14:59;;;;;;;41.58;24.00;;;2.50;99.90;;;;;;4955357;28;20406;-50
2022/11/20 00:17:24;;;;;;;37.80;22.55;;;2.50;99.90;;;;;;4969976;28;20054;-49
2022/11/20 00:19:50;;;;;;;42.35;24.70;;;2.50;99.90;;;;;;4955317;28;20039;-48
2022/11/20 00:22:15;;;;;;;43.40;23.98;;;2.50;99.90;;;;;;4954209;28;20516;-49
2022/11/20 00:24:41;;;;;;;43.17;25.35;;;2.60;99.90;;;;;;4955176;28;20031;-52
2022/11/20 00:27:06;;;;;;;39.45;23.70;;;2.60;99.90;;;;;;4955213;29;20400;-51
2022/11/20 00:29:32;;;;;;;39.08;23.02;;;2.60;99.90;;;;;;4955005;29;20031;-48
2022/11/20 00:31:57;;;;;;;37.05;21.92;;;2.60;99.90;;;;;;4954375;29;20074;-48
2022/11/20 00:34:23;;;;;;;40.40;23.52;;;2.60;99.90;;;;;;4955064;28;20114;-52
2022/11/20 00:36:48;;;;;;;40.15;24.17;;;2.60;99.90;;;;;;4954875;29;20039;-46
2022/11/20 00:39:14;;;;;;;35.42;22.40;;;2.60;99.90;;;;;;4955001;28;20083;-48
2022/11/20 00:41:40;;;;;;;41.63;23.48;;;2.60;99.90;;;;;;4954736;29;20062;-48
2022/11/20 00:44:05;;;;;;;42.33;23.30;;;2.60;99.90;;;;;;4953951;28;20038;-46
2022/11/20 00:46:30;;;;;;;40.47;22.50;;;2.60;99.90;;;;;;4954740;28;20127;-43
2022/11/20 00:48:56;;;;;;;39.78;23.27;;;2.60;99.90;;;;;;4954755;28;20027;-47
2022/11/20 00:51:24;;;;;;;34.28;20.73;;;2.60;99.90;;;;;;4954673;28;20090;-49
2022/11/20 00:53:50;;;;;;;40.88;23.60;;;2.60;99.90;;;;;;4953819;28;20035;-47
2022/11/20 00:56:17;;;;;;;40.83;23.38;;;2.60;99.90;;;;;;4954584;28;20450;-47
2022/11/20 00:58:45;;;;;;;42.38;25.20;;;2.60;99.90;;;;;;4954560;28;20108;-46
2022/11/20 01:01:16;;;;;;;46.00;23.95;;;2.60;99.90;;;;;;4953767;28;20035;-47
2022/11/20 01:03:44;;;;;;;40.33;22.70;;;2.60;99.90;;;;;;4953717;28;20027;-49
2022/11/20 01:06:18;;;;;;;42.70;22.35;;;2.60;99.90;;;;;;4954567;28;20054;-49
2022/11/20 01:08:45;;;;;;;42.58;24.27;;;2.60;99.90;;;;;;4954405;28;20027;-49
2022/11/20 01:11:20;;;;;;;44.22;23.98;;;2.60;99.90;;;;;;4954666;28;20514;-51
2022/11/20 01:13:47;;;;;;;40.38;23.20;;;2.60;99.90;;;;;;4953541;28;20081;-47
2022/11/20 01:16:16;;;;;;;40.65;23.67;;;2.50;99.90;;;;;;4954467;28;20027;-51
2022/11/20 01:18:45;;;;;;;41.58;23.60;;;2.60;99.90;;;;;;4953736;28;20027;-52
2022/11/20 01:21:21;;;;;;;43.30;24.13;;;2.60;99.90;;;;;;4954048;28;20810;-48
2022/11/20 01:23:48;;;;;;;41.65;24.23;;;2.50;99.90;;;;;;4953879;28;20563;-48
2022/11/20 01:26:16;;;;;;;37.95;22.63;;;2.50;99.90;;;;;;4954168;28;20039;-49
2022/11/20 01:28:43;;;;;;;43.63;22.85;;;2.50;99.90;;;;;;4954145;28;20023;-53
2022/11/20 01:31:16;;;;;;;41.50;22.75;;;2.60;99.90;;;;;;4954117;28;20034;-48
2022/11/20 01:33:43;;;;;;;35.85;22.55;;;2.60;99.90;;;;;;4952223;28;20035;-47
2022/11/20 01:36:09;;;;;;;42.35;23.77;;;2.80;99.90;;;;;;4954059;28;20066;-49
2022/11/20 01:38:35;;;;;;;40.70;23.55;;;2.80;99.90;;;;;;4953760;28;20458;-47
2022/11/20 01:41:01;;;;;;;38.72;22.77;;;2.80;99.90;;;;;;4968675;28;20118;-47
2022/11/20 01:43:28;;;;;;;42.42;22.95;;;2.80;99.90;;;;;;4952969;28;20027;-49
2022/11/20 01:46:07;;;;;;;35.33;21.55;;;2.80;99.90;;;;;;4953933;28;20041;-49
2022/11/20 01:48:45;;;;;;;36.45;21.45;;;2.70;99.90;;;;;;4953712;29;20019;-50
2022/11/20 01:51:34;;;;;;;35.67;22.00;;;2.70;99.90;;;;;;4953835;28;20049;-49
2022/11/20 01:54:04;;;;;;;39.53;22.60;;;2.80;99.90;;;;;;4953066;28;20388;-48
2022/11/20 01:56:34;;;;;;;36.70;22.00;;;2.80;99.90;;;;;;4953619;28;20035;-49
2022/11/20 01:59:03;;;;;;;37.28;21.42;;;2.80;99.90;;;;;;4953554;28;20028;-48
2022/11/20 02:01:28;;;;;;;36.53;21.63;;;2.80;99.90;;;;;;4952626;28;20106;-51
2022/11/20 02:03:54;;;;;;;32.22;20.48;;;2.70;99.90;;;;;;4952722;29;20453;-47
2022/11/20 02:06:32;;;;;;;38.05;22.13;;;2.60;99.90;;;;;;4953612;28;20023;-49
2022/11/20 02:08:58;;;;;;;35.53;21.17;;;2.60;99.90;;;;;;4953491;28;20392;-51
2022/11/20 02:11:23;;;;;;;38.00;22.98;;;2.70;99.90;;;;;;4953563;29;20032;-47
2022/11/20 02:13:50;;;;;;;34.60;21.65;;;2.70;99.90;;;;;;4952654;28;20038;-48
2022/11/20 02:16:28;;;;;;;37.03;21.23;;;2.70;99.90;;;;;;4953664;28;20031;-49
2022/11/20 02:18:58;;;;;;;40.75;22.25;;;2.60;99.90;;;;;;4953358;28;20027;-49
2022/11/20 02:21:45;;;;;;;36.60;21.15;;;2.60;99.90;;;;;;4975809;23;20035;-49
2022/11/20 02:24:22;;;;;;;37.75;21.23;;;2.60;99.90;;;;;;4929834;29;20464;-50
2022/11/20 02:26:54;;;;;;;32.92;20.63;;;2.70;99.90;;;;;;4934333;29;20035;-49
2022/11/20 02:29:25;;;;;;;35.35;21.52;;;2.60;99.90;;;;;;4934211;29;20078;-51
2022/11/20 02:31:53;;;;;;;33.40;20.92;;;2.70;99.90;;;;;;4935878;29;20023;-53
2022/11/20 02:34:18;;;;;;;33.25;20.75;;;2.70;99.90;;;;;;4937775;29;20023;-43
2022/11/20 02:36:46;;;;;;;35.35;20.40;;;2.70;99.90;;;;;;4938267;29;20055;-50
2022/11/20 02:39:16;;;;;;;31.08;19.73;;;2.70;99.90;;;;;;4938023;29;20119;-51
2022/11/20 02:41:42;;;;;;;32.55;19.02;;;2.80;99.90;;;;;;4938041;29;20019;-46
2022/11/20 02:44:08;;;;;;;32.72;22.05;;;2.80;99.90;;;;;;4937377;29;20035;-54
2022/11/20 02:46:34;;;;;;;28.85;19.02;;;2.80;99.90;;;;;;4938056;29;20070;-49
2022/11/20 02:49:04;;;;;;;33.83;20.33;;;2.80;99.90;;;;;;4938011;29;20048;-49
2022/11/20 02:51:30;;;;;;;32.95;19.38;;;2.80;99.90;;;;;;4936849;29;20024;-43
2022/11/20 02:53:56;;;;;;;34.15;19.23;;;2.80;99.90;;;;;;4937462;29;20032;-50
2022/11/20 02:56:22;;;;;;;33.70;19.33;;;2.80;99.90;;;;;;4937534;29;20575;-45
2022/11/20 02:58:47;;;;;;;35.83;21.00;;;2.80;99.90;;;;;;4937699;29;20032;-49
2022/11/20 03:01:14;;;;;;;32.58;20.60;;;2.80;99.90;;;;;;4936621;29;20031;-47
2022/11/20 03:03:39;;;;;;;30.90;19.33;;;2.80;99.90;;;;;;4936927;29;20054;-50
2022/11/20 03:06:05;;;;;;;34.72;20.30;;;2.80;99.90;;;;;;4937581;29;20457;-51
2022/11/20 03:08:30;;;;;;;34.58;21.00;;;2.90;99.90;;;;;;4936370;29;20389;-52
2022/11/20 03:10:56;;;;;;;31.55;20.80;;;2.90;99.90;;;;;;4937284;29;20427;-47
2022/11/20 03:13:21;;;;;;;32.85;20.35;;;2.90;99.90;;;;;;4936618;29;20039;-47
2022/11/20 03:15:47;;;;;;;31.75;19.58;;;2.90;99.90;;;;;;4937305;29;20028;-51
2022/11/20 03:18:13;;;;;;;29.10;19.13;;;2.90;99.90;;;;;;4937399;29;20396;-50
2022/11/20 03:20:39;;;;;;;34.80;20.70;;;3.00;99.90;;;;;;4937273;29;20024;-41
2022/11/20 03:23:05;;;;;;;32.00;19.60;;;3.00;99.90;;;;;;4936364;29;20531;-48
2022/11/20 03:25:31;;;;;;;32.45;19.38;;;3.00;99.90;;;;;;4937261;29;20122;-47
2022/11/20 03:27:56;;;;;;;31.80;18.02;;;3.00;99.90;;;;;;4937188;29;20032;-52
2022/11/20 03:30:22;;;;;;;31.13;19.17;;;3.00;99.90;;;;;;4937153;29;20043;-49
2022/11/20 03:32:47;;;;;;;34.83;20.48;;;3.00;99.90;;;;;;4936418;29;20039;-52
2022/11/20 03:35:13;;;;;;;33.30;20.23;;;3.00;99.90;;;;;;4937460;29;20383;-49
2022/11/20 03:37:38;;;;;;;33.03;20.10;;;3.10;99.90;;;;;;4937025;29;20385;-49
2022/11/20 03:40:05;;;;;;;32.83;19.88;;;3.10;99.90;;;;;;4936929;29;20075;-51
2022/11/20 03:42:45;;;;;;;34.55;20.63;;;3.20;99.90;;;;;;4935661;29;20563;-44
2022/11/20 03:45:12;;;;;;;34.28;20.33;;;3.20;99.90;;;;;;4936705;29;20024;-48
2022/11/20 03:47:38;;;;;;;33.53;20.30;;;3.20;99.90;;;;;;4936831;29;20024;-47
2022/11/20 03:50:04;;;;;;;34.20;19.88;;;3.10;99.90;;;;;;4936741;29;20026;-49
2022/11/20 03:52:29;;;;;;;31.63;20.00;;;3.10;99.90;;;;;;4935865;29;20023;-48
2022/11/20 03:54:55;;;;;;;37.72;20.60;;;3.10;99.90;;;;;;4936472;29;20115;-49
2022/11/20 03:57:20;;;;;;;33.00;19.75;;;3.10;99.90;;;;;;4936630;29;20329;-50
2022/11/20 03:59:46;;;;;;;34.90;20.30;;;3.10;99.90;;;;;;4936577;29;20480;-46
2022/11/20 04:02:11;;;;;;;35.58;19.60;;;3.10;99.90;;;;;;4934748;29;20031;-53
2022/11/20 04:04:37;;;;;;;43.45;22.10;;;3.10;99.90;;;;;;4936335;29;20074;-45
2022/11/20 04:07:03;;;;;;;36.15;21.63;;;3.10;99.90;;;;;;4936317;29;20027;-48
2022/11/20 04:09:28;;;;;;;33.50;21.40;;;3.10;99.90;;;;;;4936387;29;20059;-47
2022/11/20 04:11:54;;;;;;;36.50;22.27;;;3.10;99.90;;;;;;4935667;29;20047;-46
2022/11/20 04:14:19;;;;;;;45.10;19.33;;;3.00;99.90;;;;;;4936027;29;20027;-47
2022/11/20 04:16:45;;;;;;;36.65;21.25;;;2.90;99.90;;;;;;4936082;29;20032;-46
2022/11/20 04:19:13;;;;;;;32.22;20.95;;;2.90;99.90;;;;;;4936103;29;20101;-49
2022/11/20 04:21:39;;;;;;;38.08;21.33;;;2.90;99.90;;;;;;4936440;29;20028;-41
2022/11/20 04:24:05;;;;;;;37.42;22.83;;;2.90;99.90;;;;;;4935319;29;20171;-48
2022/11/20 04:26:31;;;;;;;38.92;22.85;;;2.90;99.90;;;;;;4935895;29;20451;-45
2022/11/20 04:28:58;;;;;;;36.40;21.73;;;2.80;99.90;;;;;;4936112;29;20023;-47
2022/11/20 04:31:26;;;;;;;38.03;21.30;;;2.80;99.90;;;;;;4935884;29;20161;-50
2022/11/20 04:33:52;;;;;;;35.67;21.00;;;2.80;99.90;;;;;;4935045;29;20031;-46
2022/11/20 04:36:22;;;;;;;40.58;22.75;;;2.70;99.90;;;;;;4935842;29;20032;-47
2022/11/20 04:38:56;;;;;;;42.22;22.30;;;2.70;99.90;;;;;;4935957;29;20559;-46
2022/11/20 04:41:26;;;;;;;41.60;22.88;;;2.70;99.90;;;;;;4935778;29;20122;-48
2022/11/20 04:43:58;;;;;;;41.42;22.80;;;2.70;99.90;;;;;;4935278;29;20175;-47
2022/11/20 04:46:25;;;;;;;35.28;20.90;;;2.70;99.90;;;;;;4935684;29;20480;-47
2022/11/20 04:48:50;;;;;;;38.58;22.15;;;2.70;99.90;;;;;;4935770;29;20039;-49
2022/11/20 04:51:16;;;;;;;40.55;22.60;;;2.80;99.90;;;;;;4935796;29;20024;-52
2022/11/20 04:53:42;;;;;;;38.15;22.50;;;2.90;99.90;;;;;;4933994;29;20023;-46
2022/11/20 04:56:10;;;;;;;39.95;22.27;;;2.90;99.90;;;;;;4935823;29;20019;-48
2022/11/20 04:58:36;;;;;;;35.20;20.80;;;3.10;99.90;;;;;;4935543;29;20035;-51
2022/11/20 05:01:04;;;;;;;39.67;22.17;;;3.10;99.90;;;;;;4933776;29;20040;-55
2022/11/20 05:03:30;;;;;;;36.10;20.20;;;3.10;99.90;;;;;;4934493;29;20027;-45
2022/11/20 05:05:56;;;;;;;40.08;22.45;;;3.20;99.90;;;;;;4933767;29;20035;-49
2022/11/20 05:08:21;;;;;;;39.28;21.13;;;3.20;99.90;;;;;;4935288;29;20024;-52
2022/11/20 05:10:47;;;;;;;39.72;22.05;;;3.20;99.90;;;;;;4935151;29;20452;-52
2022/11/20 05:13:12;;;;;;;39.70;22.80;;;3.20;99.90;;;;;;4933159;29;20024;-48
2022/11/20 05:15:38;;;;;;;40.42;22.02;;;3.10;99.90;;;;;;4933861;29;20090;-48
2022/11/20 05:18:04;;;;;;;42.03;22.75;;;3.20;99.90;;;;;;4935062;29;20080;-46
2022/11/20 05:20:29;;;;;;;37.85;22.55;;;3.20;99.90;;;;;;4935211;29;20027;-50
2022/11/20 05:22:58;;;;;;;38.92;22.30;;;3.20;99.90;;;;;;4934107;29;20043;-48
2022/11/20 05:25:23;;;;;;;37.28;20.17;;;3.30;99.90;;;;;;4935493;29;20091;-51
2022/11/20 05:27:49;;;;;;;43.58;21.92;;;3.40;99.90;;;;;;4934381;29;20526;-46
2022/11/20 05:30:15;;;;;;;44.83;23.48;;;3.40;99.90;;;;;;4935856;29;20103;-47
2022/11/20 05:32:40;;;;;;;37.28;20.48;;;3.40;99.90;;;;;;4934356;29;20024;-50
2022/11/20 05:35:06;;;;;;;37.70;21.40;;;3.40;99.90;;;;;;4934937;29;20480;-52
2022/11/20 05:37:32;;;;;;;37.17;21.88;;;3.40;99.90;;;;;;4934713;29;20038;-49
2022/11/20 05:39:57;;;;;;;41.90;23.50;;;3.40;99.90;;;;;;4935004;29;20034;-49
2022/11/20 05:42:32;;;;;;;37.22;22.20;;;3.40;99.90;;;;;;4934365;29;20050;-48
2022/11/20 05:44:58;;;;;;;39.72;22.92;;;3.40;99.90;;;;;;4934832;29;20074;-51
2022/11/20 05:47:24;;;;;;;43.88;22.52;;;3.50;99.90;;;;;;4934572;29;20055;-45
2022/11/20 05:49:50;;;;;;;39.40;22.02;;;3.50;99.90;;;;;;4933433;29;20036;-45
2022/11/20 05:52:15;;;;;;;38.88;21.95;;;3.40;99.90;;;;;;4933707;29;20035;-48
2022/11/20 05:54:41;;;;;;;40.83;22.60;;;3.40;99.90;;;;;;4933248;29;20037;-48
2022/11/20 05:57:06;;;;;;;41.90;24.27;;;3.50;99.90;;;;;;4934480;29;20440;-49
2022/11/20 05:59:32;;;;;;;35.88;21.23;;;3.50;99.90;;;;;;4934748;29;20032;-45
2022/11/20 06:01:57;;;;;;;37.58;21.05;;;3.50;99.90;;;;;;4932618;29;20020;-50
2022/11/20 06:04:23;;;;;;;36.28;21.08;;;3.50;99.90;;;;;;4934446;29;20046;-47
2022/11/20 06:06:48;;;;;;;36.45;21.67;;;3.50;99.90;;;;;;4934010;29;20070;-49
2022/11/20 06:09:14;;;;;;;34.83;20.23;;;3.40;99.90;;;;;;4934419;29;20020;-49
2022/11/20 06:11:39;;;;;;;34.53;21.30;;;3.40;99.90;;;;;;4934155;29;20028;-46
2022/11/20 06:14:06;;;;;;;34.25;20.58;;;3.40;99.90;;;;;;4933717;29;20078;-47
2022/11/20 06:16:31;;;;;;;36.15;20.35;;;3.40;99.90;;;;;;4934291;29;20404;-47
2022/11/20 06:18:57;;;;;;;39.28;21.98;;;3.40;99.90;;;;;;4934382;29;20044;-51
2022/11/20 06:21:23;;;;;;;35.80;21.10;;;3.40;99.90;;;;;;4934079;29;20023;-44
2022/11/20 06:23:50;;;;;;;37.05;21.88;;;3.50;99.90;;;;;;4933518;29;20034;-49
2022/11/20 06:26:21;;;;;;;34.85;21.10;;;3.50;99.90;;;;;;4934303;29;20506;-48
2022/11/20 06:28:47;;;;;;;38.50;21.95;;;3.50;99.90;;;;;;4934184;29;20067;-48
2022/11/20 06:31:15;;;;;;;34.75;20.88;;;3.50;99.90;;;;;;4934354;29;20019;-50
2022/11/20 06:33:41;;;;;;;36.45;22.75;;;3.50;99.90;;;;;;4933402;29;20126;-43
2022/11/20 06:36:08;;;;;;;40.90;21.92;;;3.50;99.90;;;;;;4934324;29;20031;-51
2022/11/20 06:38:34;;;;;;;40.33;21.13;;;3.50;99.90;;;;;;4934478;29;20480;-49
2022/11/20 06:40:59;;;;;;;35.47;20.83;;;3.70;99.90;;;;;;4934006;29;20036;-48
2022/11/20 06:43:26;;;;;;;37.50;21.60;;;3.60;99.90;;;;;;4933781;29;20024;-51
2022/11/20 06:45:56;;;;;;;38.00;21.23;;;3.60;99.90;;;;;;4934498;29;20028;-48
2022/11/20 06:48:22;;;;;;;35.75;21.38;;;3.50;99.90;;;;;;4934770;29;20559;-52
2022/11/20 06:50:48;;;;;;;35.15;20.60;;;3.50;99.90;;;;;;4944409;29;20039;-43
2022/11/20 06:53:13;;;;;;;33.20;19.50;;;3.50;99.90;;;;;;4946757;29;20024;-47
2022/11/20 06:55:43;;;;;;;36.38;20.33;;;3.40;99.90;;;;;;4953417;28;20070;-44
2022/11/20 06:58:09;;;;;;;33.15;19.73;;;3.40;99.90;;;;;;4932975;28;20396;-49
2022/11/20 07:00:35;;;;;;;38.17;21.50;;;3.40;99.90;;;;;;4932420;29;20028;-50
2022/11/20 07:03:09;;;;;;;34.72;20.27;;;3.40;99.90;;;;;;4947833;29;20031;-51
2022/11/20 07:05:35;;;;;;;39.75;22.67;;;3.40;99.90;;;;;;4928283;29;20111;-51
2022/11/20 07:08:02;;;;;;;38.80;21.08;;;3.50;99.90;;;;;;4921273;29;20024;-44
2022/11/20 07:10:27;;;;;;;37.53;21.55;;;3.50;99.90;;;;;;4922945;29;20102;-47
2022/11/20 07:12:53;;;;;;;34.17;18.70;;;3.50;99.90;;;;;;4921040;29;20024;-49
2022/11/20 07:15:21;;;;;;;36.95;19.63;;;3.40;99.90;;;;;;4923352;29;20032;-49
2022/11/20 07:17:46;;;;;;;37.92;20.10;;;3.40;99.90;;;;;;4937587;29;20095;-44
2022/11/20 07:20:12;;;;;;;33.95;19.08;;;3.30;99.90;;;;;;4946957;29;20448;-43
2022/11/20 07:22:38;;;;;;;31.17;18.95;;;3.30;99.90;;;;;;4943192;29;20043;-47
2022/11/20 07:25:04;;;;;;;35.30;20.60;;;3.30;99.90;;;;;;4935477;29;20032;-45
2022/11/20 07:27:29;;;;;;;39.42;21.42;;;3.20;99.90;;;;;;4923515;29;20156;-46
2022/11/20 07:29:55;;;;;;;38.35;21.60;;;3.20;99.90;;;;;;4925941;29;20025;-49
2022/11/20 07:32:22;;;;;;;38.03;20.67;;;3.20;99.90;;;;;;4924210;29;20408;-46
2022/11/20 07:34:48;;;;;;;45.80;22.17;;;3.20;99.90;;;;;;4926534;29;20063;-53
2022/11/20 07:37:14;;;;;;;40.20;20.83;;;3.20;99.90;;;;;;4926778;29;20044;-49
2022/11/20 07:39:40;;;;;;;41.22;21.92;;;3.20;99.90;;;;;;4927296;29;20484;-46
2022/11/20 07:42:09;;;;;;;34.92;20.50;;;3.60;99.90;;;;;;4940479;29;20082;-48
2022/11/20 07:44:35;;;;;;;40.20;21.65;;;3.30;99.90;;;;;;4926532;29;20028;-49
2022/11/20 07:47:01;;;;;;;34.83;20.08;;;3.30;99.90;;;;;;4925745;29;20032;-46
2022/11/20 07:49:27;;;;;;;35.45;19.02;;;3.30;99.90;;;;;;4926399;29;20425;-46
2022/11/20 07:51:53;;;;;;;37.55;19.23;;;3.30;99.90;;;;;;4925781;29;20020;-45
2022/11/20 07:54:20;;;;;;;36.80;21.42;;;3.40;99.90;;;;;;4926400;29;20087;-46
2022/11/20 07:56:46;;;;;;;40.28;20.77;;;3.40;99.90;;;;;;4940684;29;20051;-50
2022/11/20 07:59:12;;;;;;;33.70;20.27;;;3.50;99.90;;;;;;4925678;29;20028;-45
2022/11/20 08:01:38;;;;;;;36.42;19.90;;;3.50;99.90;;;;;;4925769;29;20076;-53
2022/11/20 08:04:03;;;;;;;36.03;20.33;;;3.60;99.90;;;;;;4926335;29;20136;-50
2022/11/20 08:06:29;;;;;;;31.75;18.77;;;3.60;99.90;;;;;;4925687;29;20061;-45
2022/11/20 08:08:55;;;;;;;29.17;17.90;;;3.70;99.90;;;;;;4926543;29;20105;-49
2022/11/20 08:14:13;;;;;;;33.75;19.35;;;3.80;99.90;;;;;;4925068;29;20075;-47
2022/11/20 08:16:44;;;;;;;33.20;19.30;;;3.90;99.90;;;;;;4924723;29;20051;-46
2022/11/20 08:19:09;;;;;;;31.85;18.48;;;4.00;99.90;;;;;;4925710;29;20040;-47
2022/11/20 08:21:35;;;;;;;33.17;19.23;;;4.00;99.90;;;;;;4924471;29;20481;-48
2022/11/20 08:24:01;;;;;;;32.95;19.65;;;4.00;99.90;;;;;;4952502;23;20849;-51
2022/11/20 08:26:27;;;;;;;34.13;19.20;;;4.10;99.90;;;;;;5008636;28;20097;-52
2022/11/20 08:28:56;;;;;;;32.63;18.77;;;4.20;99.90;;;;;;4993527;28;20118;-55
2022/11/20 08:31:23;;;;;;;32.78;18.77;;;4.30;99.90;;;;;;4993937;28;20023;-49
2022/11/20 08:33:49;;;;;;;33.35;18.40;;;4.30;99.90;;;;;;4993332;28;20394;-50
2022/11/20 08:36:16;;;;;;;29.52;18.35;;;4.30;99.90;;;;;;4980599;28;20041;-51
2022/11/20 08:38:41;;;;;;;31.00;18.30;;;4.30;99.90;;;;;;4989798;28;20121;-54
2022/11/20 08:44:03;;;;;;;29.65;18.10;;;4.50;99.90;;;;;;4989448;28;20093;-54
2022/11/20 08:46:39;;;;;;;28.08;17.38;;;4.50;99.90;;;;;;5008782;28;20509;-50
2022/11/20 08:49:10;;;;;;;28.75;18.40;;;4.60;99.90;;;;;;5008087;28;20023;-52
2022/11/20 08:51:37;;;;;;;27.88;17.70;;;4.70;99.90;;;;;;5007588;28;20060;-55
2022/11/20 08:54:03;;;;;;;27.02;17.50;;;4.80;99.90;;;;;;5013789;28;20031;-49
2022/11/20 08:56:28;;;;;;;28.48;18.25;;;4.80;99.90;;;;;;4991416;28;20026;-54
2022/11/20 08:58:54;;;;;;;29.00;17.92;;;4.90;99.90;;;;;;4991912;28;20034;-54
2022/11/20 09:01:21;;;;;;;27.83;17.35;;;5.10;99.90;;;;;;4992911;28;20030;-56
2022/11/20 09:03:47;;;;;;;25.25;17.13;;;4.90;99.90;;;;;;4991340;28;20040;-55
2022/11/20 09:06:12;;;;;;;26.75;19.17;;;4.80;99.90;;;;;;5006828;28;20499;-53
2022/11/20 09:08:38;;;;;;;30.10;18.60;;;4.90;99.90;;;;;;5015034;28;20022;-54
2022/11/20 09:11:04;;;;;;;29.15;18.02;;;4.90;99.90;;;;;;4992577;28;20026;-57
2022/11/20 09:13:31;;;;;;;34.47;20.25;;;4.90;99.90;;;;;;4991121;28;20022;-58
2022/11/20 09:16:02;;;;;;;30.42;18.65;;;4.90;99.90;;;;;;4992204;28;20026;-53
2022/11/20 09:18:30;;;;;;;32.03;19.63;;;4.70;99.90;;;;;;4991903;28;20084;-56
2022/11/20 09:21:00;;;;;;;32.58;19.95;;;4.60;99.90;;;;;;5006557;28;20486;-54
2022/11/20 09:23:26;;;;;;;35.05;20.88;;;4.70;99.90;;;;;;4991564;28;20030;-48
2022/11/20 09:25:55;;;;;;;36.83;21.42;;;4.70;99.90;;;;;;4992013;28;20056;-49
2022/11/20 09:28:20;;;;;;;33.55;21.42;;;4.70;99.90;;;;;;4990725;28;20036;-48
2022/11/20 09:30:46;;;;;;;36.40;21.88;;;4.70;99.90;;;;;;4991615;28;20030;-53
2022/11/20 09:33:11;;;;;;;34.67;21.92;;;4.70;99.90;;;;;;4991301;28;20037;-46
2022/11/20 09:35:37;;;;;;;35.10;20.88;;;4.80;99.90;;;;;;4989815;28;20380;-48
2022/11/20 09:38:10;;;;;;;37.90;20.63;;;4.90;99.90;;;;;;4998031;28;20049;-50
2022/11/20 09:40:39;;;;;;;37.20;22.52;;;4.90;99.90;;;;;;4989646;28;20050;-45
2022/11/20 09:43:18;;;;;;;38.50;21.10;;;4.70;99.90;;;;;;4989199;28;20026;-44
2022/11/20 09:46:10;;;;;;;37.97;20.70;;;4.70;99.90;;;;;;5005090;28;20080;-47
2022/11/20 09:49:16;;;;;;;33.45;19.25;;;4.80;99.90;;;;;;4991757;28;20025;-45
2022/11/20 09:51:41;;;;;;;35.30;21.02;;;4.70;99.90;;;;;;4990307;28;20193;-44
2022/11/20 09:54:15;;;;;;;38.63;21.73;;;4.70;99.90;;;;;;4990419;28;20093;-48
2022/11/20 09:56:44;;;;;;;37.97;22.65;;;4.70;99.90;;;;;;4991013;28;20495;-46
2022/11/20 09:59:36;;;;;;;37.42;22.65;;;4.70;99.90;;;;;;4980328;28;20437;-48
2022/11/20 10:02:12;;;;;;;33.15;20.75;;;4.70;99.90;;;;;;4983991;28;20039;-47
2022/11/20 10:04:43;;;;;;;32.38;20.52;;;4.60;99.90;;;;;;4978644;28;20050;-46
2022/11/20 10:07:19;;;;;;;32.55;20.35;;;4.60;99.90;;;;;;4990483;28;20118;-47
2022/11/20 10:09:52;;;;;;;36.90;22.98;;;4.70;99.90;;;;;;5006363;28;20019;-46
2022/11/20 10:12:50;;;;;;;37.63;22.25;;;4.80;99.90;;;;;;4989820;28;20034;-48
2022/11/20 10:15:37;;;;;;;35.35;21.25;;;4.90;99.90;;;;;;4990860;28;20062;-45
2022/11/20 10:18:21;;;;;;;35.25;20.45;;;4.90;99.90;;;;;;4972862;28;20027;-49
2022/11/20 10:21:00;;;;;;;35.85;21.25;;;5.00;99.90;;;;;;4977411;28;20026;-48
2022/11/20 10:23:31;;;;;;;63.30;37.53;;;5.10;99.90;;;;;;4978922;28;20035;-46
2022/11/20 10:26:30;;;;;;;155.93;87.05;;;5.30;99.90;;;;;;4971310;28;20081;-45
2022/11/20 10:29:12;;;;;;;39.53;22.88;;;5.30;99.90;;;;;;4971404;28;20019;-45
2022/11/20 10:31:47;;;;;;;34.90;20.70;;;5.20;99.90;;;;;;4979196;28;20018;-49
2022/11/20 10:34:17;;;;;;;29.83;19.80;;;5.20;99.90;;;;;;4974372;28;20034;-54
2022/11/20 10:36:56;;;;;;;35.22;20.58;;;5.10;99.90;;;;;;4970541;28;20027;-50
2022/11/20 10:39:45;;;;;;;30.75;19.77;;;5.30;99.90;;;;;;4971702;28;20061;-52
2022/11/20 10:42:17;;;;;;;34.08;19.23;;;5.30;99.90;;;;;;4970729;28;20026;-51
2022/11/20 10:45:01;;;;;;;32.92;20.15;;;5.20;99.90;;;;;;4971882;28;20031;-50
2022/11/20 10:47:30;;;;;;;29.45;19.30;;;5.10;99.90;;;;;;4971258;28;20399;-52
2022/11/20 10:50:01;;;;;;;34.45;18.58;;;5.10;99.90;;;;;;4970791;28;20029;-48
2022/11/20 10:52:35;;;;;;;32.15;19.52;;;5.20;99.90;;;;;;4972291;28;20109;-49
2022/11/20 10:55:25;;;;;;;31.98;19.45;;;5.30;99.90;;;;;;4975415;28;20512;-52
2022/11/20 10:58:19;;;;;;;32.72;21.17;;;5.20;99.90;;;;;;4979381;28;20088;-49
2022/11/20 11:00:45;;;;;;;29.85;18.50;;;5.20;99.90;;;;;;5009388;28;20060;-52
2022/11/20 11:03:23;;;;;;;31.27;19.27;;;5.20;99.90;;;;;;4994180;28;20050;-50
2022/11/20 11:06:12;;;;;;;29.75;18.95;;;5.20;99.90;;;;;;5008795;28;20026;-53
2022/11/20 11:08:39;;;;;;;30.40;19.20;;;5.30;99.90;;;;;;4994999;28;20114;-51
2022/11/20 11:11:28;;;;;;;27.65;18.25;;;5.20;99.90;;;;;;4975671;28;20019;-51
2022/11/20 11:14:07;;;;;;;29.45;19.35;;;5.20;99.90;;;;;;4972954;28;20030;-53
2022/11/20 11:16:33;;;;;;;31.92;19.30;;;5.20;99.90;;;;;;4974677;28;20035;-51
2022/11/20 11:19:13;;;;;;;30.95;18.65;;;5.30;99.90;;;;;;4974436;28;20041;-47
2022/11/20 11:21:45;;;;;;;32.60;19.50;;;5.30;99.90;;;;;;4975334;28;20031;-48
2022/11/20 11:24:26;;;;;;;32.53;19.73;;;5.40;99.90;;;;;;4973406;28;20438;-47
2022/11/20 11:27:11;;;;;;;34.13;19.98;;;5.60;99.90;;;;;;4974125;28;20027;-47
2022/11/20 11:29:36;;;;;;;32.57;19.83;;;5.50;99.90;;;;;;4989572;28;20023;-50
2022/11/20 11:32:14;;;;;;;27.58;17.90;;;5.60;99.90;;;;;;4984640;28;20042;-49
2022/11/20 11:34:39;;;;;;;29.90;19.30;;;5.60;99.90;;;;;;5008502;28;20030;-48
2022/11/20 11:37:12;;;;;;;28.35;17.75;;;5.60;99.90;;;;;;4993577;28;20026;-53
2022/11/20 11:39:41;;;;;;;28.00;17.55;;;5.70;99.90;;;;;;4994408;28;20038;-50
2022/11/20 11:42:16;;;;;;;33.70;17.42;;;5.60;99.90;;;;;;4992455;28;20041;-48
2022/11/20 11:47:44;;;;;;;29.75;17.00;;;5.50;99.90;;;;;;4993217;28;20053;-51
2022/11/20 11:50:09;;;;;;;29.15;17.90;;;5.40;99.90;;;;;;4993145;28;20446;-50
2022/11/20 11:52:55;;;;;;;27.98;16.77;;;5.50;99.90;;;;;;4992996;28;20030;-49
2022/11/20 11:55:33;;;;;;;24.38;15.63;;;5.50;99.90;;;;;;4993773;28;20030;-51
2022/11/20 11:58:09;;;;;;;23.67;15.57;;;5.60;99.90;;;;;;4992863;28;20105;-48
2022/11/20 12:00:39;;;;;;;23.65;15.38;;;5.60;99.90;;;;;;4993573;28;20513;-50
2022/11/20 12:03:32;;;;;;;23.67;14.68;;;5.70;99.90;;;;;;5007595;28;20146;-49
2022/11/20 12:06:04;;;;;;;25.63;15.02;;;5.80;99.90;;;;;;4993583;28;20019;-50
2022/11/20 12:08:53;;;;;;;26.10;15.00;;;5.90;99.90;;;;;;4989832;28;20023;-54
2022/11/20 12:11:34;;;;;;;116.50;65.10;;;6.00;99.90;;;;;;4973362;28;20026;-61
2022/11/20 12:14:19;;;;;;;50.50;29.33;;;5.90;99.90;;;;;;4973561;28;20058;-47
2022/11/20 12:16:45;;;;;;;28.90;15.70;;;5.90;99.90;;;;;;4991564;28;20105;-50
2022/11/20 12:19:13;;;;;;;21.92;14.98;;;5.90;99.90;;;;;;4992161;28;20026;-58
2022/11/20 12:22:04;;;;;;;23.95;14.70;;;6.00;99.90;;;;;;4992697;28;20227;-49
2022/11/20 12:24:44;;;;;;;20.95;14.23;;;6.00;99.90;;;;;;4992861;28;20041;-49
2022/11/20 12:27:47;;;;;;;23.55;16.23;;;5.90;99.90;;;;;;4992330;28;20076;-49
2022/11/20 12:30:15;;;;;;;20.52;13.57;;;5.90;99.90;;;;;;4993353;28;20395;-50
2022/11/20 12:33:04;;;;;;;24.80;15.07;;;5.80;99.90;;;;;;4992097;28;20022;-49
2022/11/20 12:35:59;;;;;;;26.63;16.48;;;5.70;99.90;;;;;;4992289;28;20566;-48
2022/11/20 12:38:39;;;;;;;24.45;16.08;;;5.70;99.90;;;;;;4992428;28;20038;-53
2022/11/20 12:41:04;;;;;;;23.02;14.80;;;5.70;99.90;;;;;;5007222;28;20037;-51
2022/11/20 12:46:41;;;;;;;25.05;17.08;;;5.70;99.90;;;;;;4992604;28;20033;-51
2022/11/20 12:49:25;;;;;;;25.13;16.85;;;5.60;99.90;;;;;;4992546;28;20062;-53
2022/11/20 12:51:58;;;;;;;22.88;15.75;;;5.60;99.90;;;;;;4992610;28;20057;-55
2022/11/20 12:54:42;;;;;;;25.77;17.17;;;5.70;99.90;;;;;;4992881;28;20031;-51
2022/11/20 12:57:12;;;;;;;25.05;17.02;;;5.70;99.90;;;;;;4992024;28;20027;-49
2022/11/20 13:00:04;;;;;;;29.40;17.40;;;5.70;99.90;;;;;;4992832;28;20037;-52